Radiosonde details



Informationen :

Serial : X3123535
Type : RS41-SGE
Frequency : 403.000MHz
Launchsite : Keflavikurflugvollur
Nearest town : Mosfellsbær, IS (8.3km)

Altitude (Max) : 28315m at 2026-09-05 00:18:36
Speed (Max) : 74km/h at altitude 10766m

Average speed : 32km/h
Average ascent rate : 6m/s
Average descent rate : -18m/s
Ascent rate (Max) : 11.1m/s
Descent rate (Max): -29.6m/s

First frame :
DL9RDZ-2 at 2026-09-04 23:03:54 at altitude 996m (OG: 954m)
Last frame :
DL9RDZ-1 at 2026-09-05 00:43:51 at altitude 507m (OG: 465m)

Flighttime : 1h39m57s
Ascent time : 1h14m42s
Descent time : 25m15s
Uptime : -
Killtimer : 8h09m

Distance (Straight line distance): 47km

Distance (Route):


Frames : 378


Measurement :

Temperature : 4.3°C
Humidity : 99.8%
Pressure : 0hPa


Vertical profile (SkewT) :


Elevation profile :



Receiving stations :


Receiver Frames First received Last received
DL9RDZ-1 378 2026-09-04 23:03:54 2026-09-05 00:43:51

Share per receiver :



All frames :


Receiver Date Latitude Longitude Direction Speed Altitude Climb Temperature Humidity Pressure Voltage Killtimer Uptime BKT XDATA
DL9RDZ-12026-09-05 00:43:5164.09334-21.6717386°24km/h507m-14.1m/s4.3°C99.8%0hPa0V08:09:0000:00:0000:00:00
DL9RDZ-12026-09-05 00:43:4164.09332-21.6728289°18km/h640m-13.5m/s3.5°C0%0hPa0V08:10:0000:00:0000:00:00
DL9RDZ-12026-09-05 00:43:3064.09333-21.67381116°13km/h792m-14.9m/s2.9°C99.3%0hPa0V08:10:0000:00:0000:00:00
DL9RDZ-12026-09-05 00:43:1964.09361-21.67398169°13km/h945m-14.9m/s2.5°C97.8%0hPa0V08:10:0000:00:0000:00:00
DL9RDZ-12026-09-05 00:43:0864.09375-21.6741167°5km/h1097m-15.1m/s2.9°C85.8%0hPa0V08:10:0000:00:0000:00:00
DL9RDZ-12026-09-05 00:42:5764.09362-21.6742213°5km/h1251m-14.4m/s2.3°C84.3%0hPa0V08:10:0000:00:0000:00:00
DL9RDZ-12026-09-05 00:42:4764.09347-21.67412334°7km/h1392m-13.7m/s1.0°C90.8%0hPa0V08:11:0000:00:0000:00:00
DL9RDZ-12026-09-05 00:42:3664.09326-21.67404355°7km/h1545m-12.9m/s-0.4°C0%0hPa0V08:11:0000:00:0000:00:00
DL9RDZ-12026-09-05 00:42:2564.09303-21.674057km/h1698m-14.5m/s-1.5°C0%0hPa0V08:11:0000:00:0000:00:00
DL9RDZ-12026-09-05 00:42:1464.09283-21.6744745°9km/h1864m-15.2m/s-2.0°C98.3%0hPa0V08:11:0000:00:0000:00:00
DL9RDZ-12026-09-05 00:42:0364.09265-21.6748858°13km/h2024m-14.9m/s-2.6°C92.4%0hPa0V08:11:0000:00:0000:00:00
DL9RDZ-12026-09-05 00:41:5364.09257-21.6755282°11km/h2166m-13.5m/s-3.1°C82.3%0hPa0V08:11:0000:00:0000:00:00
DL9RDZ-12026-09-05 00:41:4364.09254-21.6761489°13km/h2307m-15.5m/s-3.4°C73.9%0hPa0V08:11:0000:00:0000:00:00
DL9RDZ-12026-09-05 00:41:3264.09250-21.6768974°13km/h2467m-15.8m/s-4.2°C77.5%0hPa0V08:11:0000:00:0000:00:00
DL9RDZ-12026-09-05 00:41:2264.09238-21.6774756°9km/h2612m-14.8m/s-5.4°C84.2%0hPa0V08:11:0000:00:0000:00:00
DL9RDZ-12026-09-05 00:41:1164.09219-21.6778219°7km/h2772m-15.6m/s-6.5°C76.5%0hPa0V08:11:0000:00:0000:00:00
DL9RDZ-12026-09-05 00:41:0064.09203-21.6779930°7km/h2933m-14.5m/s-7.7°C79.2%0hPa0V08:12:0000:00:0000:00:00
DL9RDZ-12026-09-05 00:40:4964.09186-21.6782344°7km/h3100m-15.8m/s-7.9°C62.6%0hPa0V08:12:0000:00:0000:00:00
DL9RDZ-12026-09-05 00:40:3864.09173-21.6786257°9km/h3267m-15.2m/s-9.2°C64.5%0hPa0V08:12:0000:00:0000:00:00
DL9RDZ-12026-09-05 00:40:1664.09148-21.6794746°4km/h3592m-14.8m/s-10.8°C62.7%0hPa0V08:13:0000:00:0000:00:00
DL9RDZ-12026-09-05 00:40:0664.09140-21.6796018°5km/h3738m-15.0m/s-11.9°C68.3%0hPa0V08:13:0000:00:0000:00:00
DL9RDZ-12026-09-05 00:39:5664.09132-21.6799594°11km/h3883m-14.9m/s-12.6°C18.3%0hPa0V08:13:0000:00:0000:00:00
DL9RDZ-12026-09-05 00:39:4564.09130-21.6806881°9km/h4051m-15.1m/s-13.3°C43.4%0hPa0V08:13:0000:00:0000:00:00
DL9RDZ-12026-09-05 00:39:3564.09125-21.6812367°11km/h4209m-16.2m/s-14.6°C43.6%0hPa0V08:13:0000:00:0000:00:00
DL9RDZ-12026-09-05 00:39:2564.09113-21.6819870°13km/h4383m-15.3m/s-15.7°C48.1%0hPa0V08:14:0000:00:0000:00:00
DL9RDZ-12026-09-05 00:39:1364.09106-21.6828480°13km/h4556m-16.7m/s-17.0°C47.7%0hPa0V08:14:0000:00:0000:00:00
DL9RDZ-12026-09-05 00:39:0364.09099-21.6835379°15km/h4715m-15.9m/s-18.2°C50.9%0hPa0V08:14:0000:00:0000:00:00
DL9RDZ-12026-09-05 00:38:5264.09088-21.6842673°13km/h4891m-16.8m/s-19.8°C55.4%0hPa0V08:14:0000:00:0000:00:00
DL9RDZ-12026-09-05 00:38:4264.09077-21.6849686°11km/h5054m-15.6m/s-20.9°C54.1%0hPa0V08:14:0000:00:0000:00:00
DL9RDZ-12026-09-05 00:38:3164.09068-21.6855848°9km/h5224m-15.9m/s-22.3°C62.5%0hPa0V08:15:0000:00:0000:00:00
DL9RDZ-12026-09-05 00:38:0964.09017-21.6870056°16km/h5573m-15.6m/s-25.1°C53.0%0hPa0V08:15:0000:00:0000:00:00
DL9RDZ-12026-09-05 00:37:5864.08987-21.6879969°20km/h5745m-16.7m/s-26.4°C43.4%0hPa0V08:15:0000:00:0000:00:00
DL9RDZ-12026-09-05 00:37:4764.08968-21.6894274°26km/h5923m-15.9m/s-27.6°C28.2%0hPa0V08:15:0000:00:0000:00:00
DL9RDZ-12026-09-05 00:37:3664.08951-21.6909575°24km/h6100m-16.2m/s-29.3°C39.3%0hPa0V08:16:0000:00:0000:00:00
DL9RDZ-12026-09-05 00:37:2664.08936-21.6924474°22km/h6283m-17.5m/s-31.0°C43.8%0hPa0V08:16:0000:00:0000:00:00
DL9RDZ-12026-09-05 00:37:1564.08924-21.6936281°20km/h6446m-17.3m/s-32.3°C44.8%0hPa0V08:16:0000:00:0000:00:00
DL9RDZ-12026-09-05 00:37:0464.08910-21.6946863°20km/h6630m-17.2m/s-33.8°C48.0%0hPa0V08:16:0000:00:0000:00:00
DL9RDZ-12026-09-05 00:36:5364.08875-21.6956542°20km/h6811m-16.9m/s-35.0°C48.8%0hPa0V08:17:0000:00:0000:00:00
DL9RDZ-12026-09-05 00:36:4364.08838-21.6965143°18km/h6981m-17.1m/s-36.5°C56.4%0hPa0V08:17:0000:00:0000:00:00
DL9RDZ-12026-09-05 00:36:3264.08795-21.6972036°18km/h7175m-17.9m/s-38.0°C58.7%0hPa0V08:17:0000:00:0000:00:00
DL9RDZ-12026-09-05 00:36:2164.08746-21.6980142°22km/h7367m-19.0m/s-39.5°C48.9%0hPa0V08:17:0000:00:0000:00:00
DL9RDZ-12026-09-05 00:36:1064.08710-21.6987535°15km/h7563m-18.8m/s-40.6°C48.3%0hPa0V08:17:0000:00:0000:00:00
DL9RDZ-12026-09-05 00:35:5964.08670-21.6992338°20km/h7762m-18.9m/s-42.1°C42.5%0hPa0V08:17:0000:00:0000:00:00
DL9RDZ-12026-09-05 00:35:4964.08627-21.7000750°24km/h7944m-19.2m/s-42.6°C29.4%0hPa0V08:17:0000:00:0000:00:00
DL9RDZ-12026-09-05 00:35:3964.08597-21.7011865°24km/h8132m-19.2m/s-43.8°C25.6%0hPa0V08:17:0000:00:0000:00:00
DL9RDZ-12026-09-05 00:35:2864.08569-21.7024359°24km/h8338m-19.3m/s-45.4°C28.6%0hPa0V08:17:0000:00:0000:00:00
DL9RDZ-12026-09-05 00:35:1864.08533-21.7035352°24km/h8529m-19.9m/s-46.6°C29.4%0hPa0V08:17:0000:00:0000:00:00
DL9RDZ-12026-09-05 00:35:0764.08496-21.7047958°22km/h8744m-20.4m/s-48.3°C32.6%0hPa0V08:18:0000:00:0000:00:00
DL9RDZ-12026-09-05 00:34:5764.08469-21.7059662°24km/h8938m-18.8m/s-49.7°C34.1%0hPa0V08:18:0000:00:0000:00:00
DL9RDZ-12026-09-05 00:34:4664.08435-21.7073258°26km/h9160m-22.2m/s-51.0°C34.6%0hPa0V08:18:0000:00:0000:00:00
DL9RDZ-12026-09-05 00:34:3664.08395-21.7084955°29km/h9369m-21.3m/s-52.2°C34.2%0hPa0V08:18:0000:00:0000:00:00
DL9RDZ-12026-09-05 00:34:2564.08353-21.7098966°27km/h9603m-22.4m/s-53.0°C28.7%0hPa0V08:18:0000:00:0000:00:00
DL9RDZ-12026-09-05 00:34:1464.08318-21.7116674°37km/h9839m-22.0m/s-53.6°C23.6%0hPa0V08:19:0000:00:0000:00:00
DL9RDZ-12026-09-05 00:34:0364.08283-21.7138971°38km/h10070m-22.4m/s-53.4°C15.7%0hPa0V08:19:0000:00:0000:00:00
DL9RDZ-12026-09-05 00:33:5264.08257-21.7162272°35km/h10312m-23.3m/s-51.8°C8.0%0hPa0V08:19:0000:00:0000:00:00
DL9RDZ-12026-09-05 00:33:4264.08235-21.7181483°38km/h10533m-23.0m/s-50.4°C4.2%0hPa0V08:19:0000:00:0000:00:00
DL9RDZ-12026-09-05 00:33:3164.08212-21.7207580°46km/h10775m-21.6m/s-47.4°C1.9%0hPa0V08:19:0000:00:0000:00:00
DL9RDZ-12026-09-05 00:33:2164.08190-21.7231380°42km/h10990m-23.1m/s-45.9°C1.5%0hPa0V08:20:0000:00:0000:00:00
DL9RDZ-12026-09-05 00:33:1064.08167-21.7261882°49km/h11230m-23.5m/s-44.8°C1.3%0hPa0V08:20:0000:00:0000:00:00
DL9RDZ-12026-09-05 00:33:0064.08151-21.7287485°42km/h11457m-23.1m/s-44.7°C1.3%0hPa0V08:20:0000:00:0000:00:00
DL9RDZ-12026-09-05 00:32:4964.08119-21.7314072°47km/h11709m-23.4m/s-44.4°C1.3%0hPa0V08:20:0000:00:0000:00:00
DL9RDZ-12026-09-05 00:32:3964.08088-21.7342479°53km/h11944m-22.6m/s-44.7°C1.3%0hPa0V08:21:0000:00:0000:00:00
DL9RDZ-12026-09-05 00:32:2964.08065-21.7374290°57km/h12171m-24.1m/s-45.1°C1.3%0hPa0V08:21:0000:00:0000:00:00
DL9RDZ-12026-09-05 00:32:1864.08062-21.7409091°51km/h12419m-21.9m/s-45.7°C1.3%0hPa0V08:21:0000:00:0000:00:00
DL9RDZ-12026-09-05 00:32:0764.08070-21.74393100°40km/h12660m-22.4m/s-44.6°C1.0%0hPa0V08:21:0000:00:0000:00:00
DL9RDZ-12026-09-05 00:31:5664.08078-21.7462388°35km/h12903m-23.7m/s-45.1°C1.0%0hPa0V08:21:0000:00:0000:00:00
DL9RDZ-12026-09-05 00:31:4564.08070-21.7484783°40km/h13143m-21.1m/s-45.8°C1.0%0hPa0V08:22:0000:00:0000:00:00
DL9RDZ-12026-09-05 00:31:2264.07979-21.7539961°49km/h13651m-20.2m/s-46.2°C1.1%0hPa0V08:22:0000:00:0000:00:00
DL9RDZ-12026-09-05 00:31:1164.07902-21.7572272°60km/h13887m-24.8m/s-46.8°C1.1%0hPa0V08:22:0000:00:0000:00:00
DL9RDZ-12026-09-05 00:31:0164.07864-21.7604979°55km/h14110m-21.3m/s-47.0°C1.1%0hPa0V08:22:0000:00:0000:00:00
DL9RDZ-12026-09-05 00:30:5064.07844-21.7634485°40km/h14358m-25.4m/s-47.1°C1.1%0hPa0V08:22:0000:00:0000:00:00
DL9RDZ-12026-09-05 00:30:4064.07826-21.7655577°40km/h14607m-26.0m/s-48.2°C1.1%0hPa0V08:22:0000:00:0000:00:00
DL9RDZ-12026-09-05 00:30:2864.07812-21.7690296°46km/h14928m-24.6m/s-49.1°C1.2%0hPa0V08:22:0000:00:0000:00:00
DL9RDZ-12026-09-05 00:29:3964.07810-21.77790107°33km/h16131m-29.6m/s-47.4°C0.7%0hPa0V00:00:0000:00:0000:00:00
DL9RDZ-12026-09-05 00:18:3664.06380-21.8811097°26km/h28315m4.8m/s-47.7°C0.8%0hPa0V00:00:0000:00:0000:00:00
DL9RDZ-12026-09-05 00:15:1364.05593-21.9114189°29km/h26839m6.8m/s-47.5°C0.8%0hPa0V00:00:0000:00:0000:00:00
DL9RDZ-12026-09-05 00:12:0464.05193-21.92969126°15km/h25637m5.1m/s-47.6°C0.8%0hPa0V00:00:0000:00:0000:00:00
DL9RDZ-12026-09-05 00:11:4464.05173-21.930629km/h25509m7.5m/s-47.8°C0.8%0hPa0V00:00:0000:00:0000:00:00
DL9RDZ-12026-09-05 00:11:3464.05154-21.93098129°7km/h25446m5.5m/s-47.5°C0.9%0hPa0V00:00:0000:00:0000:00:00
DL9RDZ-12026-09-05 00:11:2064.05141-21.93182103°22km/h25359m7.7m/s-47.3°C0.8%0hPa0V00:00:0000:00:0000:00:00
DL9RDZ-12026-09-05 00:11:0764.05128-21.9334793°27km/h25276m7.2m/s-46.9°C0.8%0hPa0V00:00:0000:00:0000:00:00
DL9RDZ-12026-09-05 00:10:5564.05128-21.93535112°46km/h25200m8.8m/s-47.0°C0.8%0hPa0V00:00:0000:00:0000:00:00
DL9RDZ-12026-09-05 00:10:4564.05134-21.9375898°42km/h25136m6.1m/s-46.9°C0.8%0hPa0V00:00:0000:00:0000:00:00
DL9RDZ-12026-09-05 00:10:2864.05124-21.9424291°42km/h25027m7.4m/s-47.1°C0.8%0hPa0V00:00:0000:00:0000:00:00
DL9RDZ-12026-09-05 00:10:1864.05109-21.9448483°37km/h24961m7.0m/s-46.9°C0.8%0hPa0V00:00:0000:00:0000:00:00
DL9RDZ-12026-09-05 00:10:0764.05084-21.9473589°40km/h24888m8.5m/s-46.7°C0.8%0hPa0V00:00:0000:00:0000:00:00
DL9RDZ-12026-09-05 00:08:2264.04596-21.9645186°33km/h24236m7.0m/s-48.4°C0.9%0hPa0V00:00:0000:00:0000:00:00
DL9RDZ-12026-09-05 00:07:2564.04439-21.9735016°16km/h23864m4.4m/s-47.8°C0.9%0hPa0V00:00:0000:00:0000:00:00
DL9RDZ-12026-09-05 00:07:1364.04379-21.9741839°27km/h23791m5.2m/s-47.7°C0.9%0hPa0V00:00:0000:00:0000:00:00
DL9RDZ-12026-09-05 00:07:0264.04329-21.9755176°35km/h23715m5.9m/s-47.6°C0.9%0hPa0V00:00:0000:00:0000:00:00
DL9RDZ-12026-09-05 00:06:3364.04224-21.9790578°16km/h23513m5.7m/s-47.2°C0.9%0hPa0V00:00:0000:00:0000:00:00
DL9RDZ-12026-09-05 00:06:2064.04203-21.9804185°18km/h23424m7.6m/s-46.8°C0.9%0hPa0V00:00:0000:00:0000:00:00
DL9RDZ-12026-09-05 00:06:0964.04203-21.98177116°22km/h23349m7.0m/s-46.5°C0.9%0hPa0V00:00:0000:00:0000:00:00
DL9RDZ-12026-09-05 00:05:5864.04211-21.98290116°16km/h23274m4.8m/s-46.5°C0.9%0hPa0V00:00:0000:00:0000:00:00
DL9RDZ-12026-09-05 00:05:4664.04211-21.9841099°35km/h23192m5.7m/s-46.3°C0.8%0hPa0V00:00:0000:00:0000:00:00
DL9RDZ-12026-09-05 00:05:3564.04204-21.98560103°22km/h23118m6.0m/s-46.9°C0.8%0hPa0V00:00:0000:00:0000:00:00
DL9RDZ-12026-09-05 00:05:2464.04198-21.9867943°9km/h23045m6.5m/s-46.8°C0.9%0hPa0V00:00:0000:00:0000:00:00
DL9RDZ-12026-09-05 00:05:1064.04203-21.98916124°37km/h22953m6.5m/s-46.8°C0.8%0hPa0V00:00:0000:00:0000:00:00
DL9RDZ-12026-09-05 00:04:1764.04135-22.0038776°40km/h22664m5.9m/s-47.8°C0.9%0hPa0V00:00:0000:00:0000:00:00
DL9RDZ-12026-09-05 00:04:0764.04092-22.0065373°47km/h22605m6.2m/s-47.9°C0.9%0hPa0V00:00:0000:00:0000:00:00
DL9RDZ-12026-09-05 00:03:5664.04045-22.0087566°49km/h22554m6.2m/s-48.6°C0.9%0hPa0V00:00:0000:00:0000:00:00
DL9RDZ-12026-09-05 00:03:4664.03991-22.0107554°38km/h22492m3.5m/s-48.7°C1.0%0hPa0V00:00:0000:00:0000:00:00
DL9RDZ-12026-09-05 00:01:1564.03366-22.0363075°35km/h21553m5.2m/s-47.8°C1.0%0hPa0V00:00:0000:00:0000:00:00
DL9RDZ-12026-09-05 00:01:0564.03337-22.0380381°42km/h21488m4.6m/s-47.6°C1.0%0hPa0V00:00:0000:00:0000:00:00
DL9RDZ-12026-09-05 00:00:5364.03303-22.0400389°27km/h21417m6.0m/s-47.4°C0.9%0hPa0V00:00:0000:00:0000:00:00
DL9RDZ-12026-09-05 00:00:4264.03275-22.0420686°29km/h21349m4.2m/s-47.4°C0.9%0hPa0V00:00:0000:00:0000:00:00
DL9RDZ-12026-09-05 00:00:1564.03190-22.0472991°38km/h21186m4.1m/s-48.2°C1.0%0hPa0V00:00:0000:00:0000:00:00
DL9RDZ-12026-09-04 23:59:5864.03120-22.0503767°47km/h21090m5.0m/s-48.6°C1.0%0hPa0V00:00:0000:00:0000:00:00
DL9RDZ-12026-09-04 23:59:4764.03080-22.0524070°40km/h21027m5.5m/s-48.7°C1.0%0hPa0V00:00:0000:00:0000:00:00
DL9RDZ-12026-09-04 23:59:0764.02885-22.0596641°40km/h20796m5.1m/s-49.6°C1.1%0hPa0V00:00:0000:00:0000:00:00
DL9RDZ-12026-09-04 23:58:1764.02656-22.0666484°22km/h20499m5.1m/s-49.2°C1.1%0hPa0V00:00:0000:00:0000:00:00
DL9RDZ-12026-09-04 23:57:1964.02599-22.0761688°40km/h20153m4.7m/s-48.7°C1.1%0hPa0V00:00:0000:00:0000:00:00
DL9RDZ-12026-09-04 23:57:0864.02581-22.0783775°33km/h20084m5.4m/s-48.6°C1.0%0hPa0V00:00:0000:00:0000:00:00
DL9RDZ-12026-09-04 23:56:5764.02543-22.0804785°26km/h20017m5.9m/s-48.3°C1.1%0hPa0V00:00:0000:00:0000:00:00
DL9RDZ-12026-09-04 23:56:4664.02502-22.0824259°20km/h19949m6.9m/s-48.1°C1.0%0hPa0V00:00:0000:00:0000:00:00
DL9RDZ-12026-09-04 23:56:3564.02446-22.0840379°29km/h19881m5.7m/s-48.5°C1.0%0hPa0V00:00:0000:00:0000:00:00
DL9RDZ-12026-09-04 23:56:2164.02396-22.0863961°27km/h19793m5.8m/s-48.4°C1.1%0hPa0V00:00:0000:00:0000:00:00
DL9RDZ-12026-09-04 23:56:0164.02323-22.0892785°26km/h19666m5.3m/s-48.0°C1.1%0hPa0V00:00:0000:00:0000:00:00
DL9RDZ-12026-09-04 23:55:5064.02304-22.0902986°20km/h19600m6.9m/s-47.8°C1.0%0hPa0V00:00:0000:00:0000:00:00
DL9RDZ-12026-09-04 23:55:4064.02286-22.0913472°26km/h19537m5.0m/s-47.4°C1.0%0hPa0V00:00:0000:00:0000:00:00
DL9RDZ-12026-09-04 23:55:2964.02268-22.0924916°11km/h19467m6.0m/s-47.7°C1.0%0hPa0V00:00:0000:00:0000:00:00
DL9RDZ-12026-09-04 23:54:5164.02272-22.09817116°33km/h19229m4.6m/s-48.1°C1.1%0hPa0V00:00:0000:00:0000:00:00
DL9RDZ-12026-09-04 23:54:3364.02271-22.1015681°27km/h19124m6.9m/s-48.3°C1.1%0hPa0V00:00:0000:00:0000:00:00
DL9RDZ-12026-09-04 23:54:1164.02226-22.1055664°31km/h18998m6.0m/s-48.3°C1.1%0hPa0V00:00:0000:00:0000:00:00
DL9RDZ-12026-09-04 23:54:0064.02184-22.1075765°24km/h18941m4.7m/s-48.3°C1.1%0hPa0V00:00:0000:00:0000:00:00
DL9RDZ-12026-09-04 23:53:3264.02113-22.1115092°22km/h18786m7.0m/s-48.7°C1.1%0hPa0V00:00:0000:00:0000:00:00
DL9RDZ-12026-09-04 23:53:1164.02113-22.1141679°20km/h18671m5.1m/s-48.5°C1.0%0hPa0V00:00:0000:00:0000:00:00
DL9RDZ-12026-09-04 23:53:0064.02112-22.1157297°38km/h18612m3.8m/s-48.3°C1.1%0hPa0V00:00:0000:00:0000:00:00
DL9RDZ-12026-09-04 23:52:5064.02116-22.11738103°31km/h18557m5.8m/s-48.3°C1.1%0hPa0V00:00:0000:00:0000:00:00
DL9RDZ-12026-09-04 23:52:3964.02135-22.11942125°26km/h18495m4.7m/s-48.3°C1.1%0hPa0V00:00:0000:00:0000:00:00
DL9RDZ-12026-09-04 23:52:2964.02160-22.12129123°35km/h18440m5.4m/s-48.5°C1.1%0hPa0V00:00:0000:00:0000:00:00
DL9RDZ-12026-09-04 23:52:1864.02173-22.1236899°47km/h18377m4.3m/s-48.5°C1.1%0hPa0V00:00:0000:00:0000:00:00
DL9RDZ-12026-09-04 23:52:0764.02176-22.1259295°31km/h18317m5.9m/s-48.7°C1.1%0hPa0V00:00:0000:00:0000:00:00
DL9RDZ-12026-09-04 23:51:2964.02190-22.13201119°16km/h18095m6.3m/s-47.8°C1.1%0hPa0V00:00:0000:00:0000:00:00
DL9RDZ-12026-09-04 23:51:1764.02210-22.13375111°31km/h18023m4.9m/s-48.0°C1.1%0hPa0V00:00:0000:00:0000:00:00
DL9RDZ-12026-09-04 23:51:0664.02234-22.13558121°24km/h17956m5.8m/s-48.0°C1.1%0hPa0V00:00:0000:00:0000:00:00
DL9RDZ-12026-09-04 23:50:5564.02280-22.13726134°37km/h17889m4.8m/s-48.1°C1.1%0hPa0V00:00:0000:00:0000:00:00
DL9RDZ-12026-09-04 23:50:4564.02313-22.13906118°33km/h17836m5.4m/s-47.9°C1.1%0hPa0V00:00:0000:00:0000:00:00
DL9RDZ-12026-09-04 23:50:3164.02325-22.14187103°44km/h17756m4.8m/s-47.6°C1.0%0hPa0V00:00:0000:00:0000:00:00
DL9RDZ-12026-09-04 23:50:2064.02330-22.1440693°38km/h17695m6.2m/s-47.7°C1.1%0hPa0V00:00:0000:00:0000:00:00
DL9RDZ-12026-09-04 23:49:5264.02273-22.1500972°38km/h17542m6.3m/s-47.8°C1.1%0hPa0V00:00:0000:00:0000:00:00
DL9RDZ-12026-09-04 23:49:4364.02244-22.1522464°49km/h17491m5.5m/s-48.1°C1.1%0hPa0V00:00:0000:00:0000:00:00
DL9RDZ-12026-09-04 23:49:3164.02203-22.1548065°42km/h17430m5.1m/s-48.3°C1.1%0hPa0V00:00:0000:00:0000:00:00
DL9RDZ-12026-09-04 23:49:1664.02131-22.1578256°31km/h17350m2.7m/s-48.5°C1.1%0hPa0V00:00:0000:00:0000:00:00
DL9RDZ-12026-09-04 23:49:0364.02090-22.1602861°33km/h17276m4.5m/s-48.5°C1.2%0hPa0V00:00:0000:00:0000:00:00
DL9RDZ-12026-09-04 23:48:5364.02052-22.1620558°31km/h17220m4.5m/s-48.5°C1.2%0hPa0V00:00:0000:00:0000:00:00
DL9RDZ-12026-09-04 23:48:4264.02019-22.1638476°35km/h17156m4.1m/s-48.3°C1.1%0hPa0V00:00:0000:00:0000:00:00
DL9RDZ-12026-09-04 23:48:3164.01984-22.1657472°37km/h17096m6.4m/s-48.2°C1.1%0hPa0V00:00:0000:00:0000:00:00
DL9RDZ-12026-09-04 23:48:1564.01906-22.1687149°40km/h17004m5.9m/s-48.7°C1.2%0hPa0V00:00:0000:00:0000:00:00
DL9RDZ-12026-09-04 23:47:5564.01825-22.1726661°33km/h16891m6.0m/s-48.3°C1.1%0hPa0V00:00:0000:00:0000:00:00
DL9RDZ-12026-09-04 23:47:4464.01795-22.1747771°35km/h16829m6.3m/s-48.1°C1.2%0hPa0V00:00:0000:00:0000:00:00
DL9RDZ-12026-09-04 23:47:3164.01765-22.1774584°29km/h16754m6.0m/s-48.1°C1.1%0hPa0V00:00:0000:00:0000:00:00
DL9RDZ-12026-09-04 23:47:2164.01748-22.1793789°27km/h16695m4.6m/s-48.1°C1.1%0hPa0V00:00:0000:00:0000:00:00
DL9RDZ-12026-09-04 23:47:1064.01717-22.1812465°26km/h16633m4.6m/s-48.2°C1.1%0hPa0V00:00:0000:00:0000:00:00
DL9RDZ-12026-09-04 23:46:5964.01669-22.1827566°27km/h16570m7.2m/s-48.4°C1.2%0hPa0V00:00:0000:00:0000:00:00
DL9RDZ-12026-09-04 23:46:4864.01629-22.1843049°29km/h16508m3.8m/s-48.0°C1.2%0hPa0V00:00:0000:00:0000:00:00
DL9RDZ-12026-09-04 23:46:3864.01608-22.1859291°42km/h16451m6.7m/s-48.2°C1.1%0hPa0V00:00:0000:00:0000:00:00
DL9RDZ-12026-09-04 23:46:2864.01617-22.18772101°38km/h16385m9.2m/s-48.0°C1.2%0hPa0V00:00:0000:00:0000:00:00
DL9RDZ-12026-09-04 23:46:1564.01640-22.19069101°40km/h16303m3.7m/s-48.1°C1.2%0hPa0V00:00:0000:00:0000:00:00
DL9RDZ-12026-09-04 23:46:0464.01645-22.1934890°49km/h16238m5.4m/s-47.6°C1.1%0hPa0V00:00:0000:00:0000:00:00
DL9RDZ-12026-09-04 23:45:5364.01653-22.19618107°33km/h16165m5.0m/s-47.6°C1.1%0hPa0V00:00:0000:00:0000:00:00
DL9RDZ-12026-09-04 23:45:4264.01655-22.1985677°37km/h16100m6.6m/s-47.7°C1.1%0hPa0V00:00:0000:00:0000:00:00
DL9RDZ-12026-09-04 23:45:3264.01662-22.2004285°40km/h16039m6.4m/s-48.1°C1.2%0hPa0V00:00:0000:00:0000:00:00
DL9RDZ-12026-09-04 23:45:2164.01657-22.2026791°42km/h15973m5.5m/s-48.2°C1.2%0hPa0V00:00:0000:00:0000:00:00
DL9RDZ-12026-09-04 23:45:1064.01639-22.2048288°24km/h15906m5.9m/s-48.5°C1.3%0hPa0V00:00:0000:00:0000:00:00
DL9RDZ-12026-09-04 23:45:0064.01621-22.2065368°20km/h15844m5.5m/s-48.5°C1.3%0hPa0V00:00:0000:00:0000:00:00
DL9RDZ-12026-09-04 23:44:4864.01600-22.2083387°24km/h15772m6.1m/s-47.9°C1.2%0hPa0V00:00:0000:00:0000:00:00
DL9RDZ-12026-09-04 23:44:3864.01586-22.2096572°26km/h15705m3.7m/s-47.4°C1.2%0hPa0V00:00:0000:00:0000:00:00
DL9RDZ-12026-09-04 23:44:2864.01571-22.2108470°26km/h15643m6.8m/s-47.2°C1.2%0hPa0V00:00:0000:00:0000:00:00
DL9RDZ-12026-09-04 23:44:1864.01554-22.2121258°29km/h15586m4.8m/s-47.4°C1.2%0hPa0V00:00:0000:00:0000:00:00
DL9RDZ-12026-09-04 23:44:0764.01551-22.21387116°35km/h15515m5.9m/s-47.5°C1.2%0hPa0V00:00:0000:00:0000:00:00
DL9RDZ-12026-09-04 23:43:5664.01562-22.2159588°33km/h15444m8.6m/s-47.5°C1.2%0hPa0V00:00:0000:00:0000:00:00
DL9RDZ-12026-09-04 23:43:4564.01549-22.2183485°35km/h15376m6.2m/s-47.3°C1.2%0hPa0V00:00:0000:00:0000:00:00
DL9RDZ-12026-09-04 23:43:3464.01539-22.22063100°37km/h15309m5.2m/s-47.9°C1.3%0hPa0V00:00:0000:00:0000:00:00
DL9RDZ-12026-09-04 23:43:1964.01527-22.2240494°37km/h15221m5.4m/s-47.5°C1.2%0hPa0V00:00:0000:00:0000:00:00
DL9RDZ-12026-09-04 23:43:0964.01531-22.22609109°38km/h15154m4.9m/s-47.7°C1.2%0hPa0V00:00:0000:00:0000:00:00
DL9RDZ-12026-09-04 23:42:5864.01537-22.2284587°37km/h15084m7.1m/s-47.7°C1.2%0hPa0V00:00:0000:00:0000:00:00
DL9RDZ-12026-09-04 23:42:4664.01547-22.2314699°44km/h15009m4.8m/s-48.0°C1.3%0hPa0V00:00:0000:00:0000:00:00
DL9RDZ-12026-09-04 23:42:3564.01553-22.2342385°42km/h14944m7.0m/s-47.9°C1.2%0hPa0V00:00:0000:00:0000:00:00
DL9RDZ-12026-09-04 23:42:2464.01546-22.2371880°49km/h14872m6.2m/s-48.0°C1.3%0hPa0V00:00:0000:00:0000:00:00
DL9RDZ-12026-09-04 23:42:1464.01541-22.2403889°69km/h14810m6.9m/s-48.2°C1.3%0hPa0V00:00:0000:00:0000:00:00
DL9RDZ-12026-09-04 23:42:0464.01521-22.2439378°53km/h14746m6.7m/s-48.3°C1.3%0hPa0V00:00:0000:00:0000:00:00
DL9RDZ-12026-09-04 23:41:5364.01485-22.2470171°58km/h14689m5.9m/s-48.2°C1.4%0hPa0V00:00:0000:00:0000:00:00
DL9RDZ-12026-09-04 23:41:4364.01442-22.2497879°57km/h14630m8.7m/s-47.8°C1.3%0hPa0V00:00:0000:00:0000:00:00
DL9RDZ-12026-09-04 23:41:3264.01395-22.2526067°53km/h14563m7.8m/s-47.4°C1.2%0hPa0V00:00:0000:00:0000:00:00
DL9RDZ-12026-09-04 23:41:2164.01347-22.2551456°44km/h14498m3.1m/s-47.2°C1.3%0hPa0V00:00:0000:00:0000:00:00
DL9RDZ-12026-09-04 23:41:1164.01318-22.2573685°37km/h14443m6.0m/s-47.2°C1.3%0hPa0V00:00:0000:00:0000:00:00
DL9RDZ-12026-09-04 23:41:0064.01303-22.2600279°49km/h14377m7.2m/s-47.1°C1.3%0hPa0V00:00:0000:00:0000:00:00
DL9RDZ-12026-09-04 23:40:5064.01280-22.2626385°49km/h14319m3.8m/s-46.9°C1.3%0hPa0V00:00:0000:00:0000:00:00
DL9RDZ-12026-09-04 23:40:4064.01250-22.2657276°46km/h14260m4.9m/s-46.8°C1.3%0hPa0V00:00:0000:00:0000:00:00
DL9RDZ-12026-09-04 23:40:2964.01218-22.2687974°57km/h14211m6.5m/s-46.8°C1.3%0hPa0V00:00:0000:00:0000:00:00
DL9RDZ-12026-09-04 23:40:1864.01185-22.2720883°57km/h14155m5.7m/s-46.7°C1.2%0hPa0V00:00:0000:00:0000:00:00
DL9RDZ-12026-09-04 23:40:0864.01156-22.2747774°60km/h14104m3.9m/s-46.7°C1.2%0hPa0V00:00:0000:00:0000:00:00
DL9RDZ-12026-09-04 23:39:5864.01113-22.2779173°60km/h14051m6.6m/s-47.2°C1.3%0hPa0V00:00:0000:00:0000:00:00
DL9RDZ-12026-09-04 23:39:4764.01079-22.2811072°53km/h13994m4.0m/s-47.5°C1.3%0hPa0V00:00:0000:00:0000:00:00
DL9RDZ-12026-09-04 23:39:3664.01014-22.2839967°51km/h13937m7.8m/s-47.3°C1.3%0hPa0V00:00:0000:00:0000:00:00
DL9RDZ-12026-09-04 23:39:2664.00943-22.2866667°55km/h13878m7.6m/s-47.4°C1.4%0hPa0V00:00:0000:00:0000:00:00
DL9RDZ-12026-09-04 23:39:0064.00812-22.2918764°35km/h13705m5.7m/s-46.7°C1.3%0hPa0V00:00:0000:00:0000:00:00
DL9RDZ-12026-09-04 23:38:5064.00777-22.2937470°38km/h13645m6.7m/s-47.0°C1.4%0hPa0V00:00:0000:00:0000:00:00
DL9RDZ-12026-09-04 23:38:3964.00759-22.29601106°42km/h13579m6.2m/s-46.7°C1.3%0hPa0V00:00:0000:00:0000:00:00
DL9RDZ-12026-09-04 23:38:2164.00749-22.2998890°37km/h13471m8.5m/s-46.4°C1.3%0hPa0V00:00:0000:00:0000:00:00
DL9RDZ-12026-09-04 23:38:1164.00751-22.3017586°29km/h13409m4.9m/s-46.2°C1.3%0hPa0V00:00:0000:00:0000:00:00
DL9RDZ-12026-09-04 23:38:0064.00767-22.30362123°24km/h13347m5.9m/s-45.8°C1.2%0hPa0V00:00:0000:00:0000:00:00
DL9RDZ-12026-09-04 23:37:4964.00791-22.30553109°40km/h13286m4.9m/s-45.9°C1.3%0hPa0V00:00:0000:00:0000:00:00
DL9RDZ-12026-09-04 23:37:3864.00799-22.3082883°35km/h13227m4.2m/s-45.8°C1.3%0hPa0V00:00:0000:00:0000:00:00
DL9RDZ-12026-09-04 23:37:2864.00809-22.3105177°33km/h13179m4.7m/s-46.1°C1.3%0hPa0V00:00:0000:00:0000:00:00
DL9RDZ-12026-09-04 23:37:1864.00816-22.3127183°38km/h13127m6.5m/s-46.2°C1.3%0hPa0V00:00:0000:00:0000:00:00
DL9RDZ-12026-09-04 23:37:0664.00830-22.31515101°38km/h13059m4.0m/s-45.9°C1.4%0hPa0V00:00:0000:00:0000:00:00
DL9RDZ-12026-09-04 23:36:5564.00839-22.3172399°35km/h12995m5.2m/s-45.9°C1.4%0hPa0V00:00:0000:00:0000:00:00
DL9RDZ-12026-09-04 23:36:4464.00871-22.31957121°35km/h12928m4.5m/s-45.7°C1.4%0hPa0V00:00:0000:00:0000:00:00
DL9RDZ-12026-09-04 23:36:3364.00908-22.32195110°44km/h12863m6.1m/s-45.9°C1.4%0hPa0V00:00:0000:00:0000:00:00
DL9RDZ-12026-09-04 23:36:2264.00942-22.32480101°57km/h12799m5.7m/s-45.8°C1.4%0hPa0V00:00:0000:00:0000:00:00
DL9RDZ-12026-09-04 23:36:1164.00982-22.32799110°46km/h12732m8.4m/s-45.9°C1.5%0hPa0V00:00:0000:00:0000:00:00
DL9RDZ-12026-09-04 23:36:0164.01018-22.33079102°55km/h12676m5.1m/s-45.9°C1.5%0hPa0V00:00:0000:00:0000:00:00
DL9RDZ-12026-09-04 23:35:5064.01034-22.3340292°51km/h12611m7.0m/s-45.7°C1.5%0hPa0V00:00:0000:00:0000:00:00
DL9RDZ-12026-09-04 23:35:3964.01040-22.3373993°58km/h12545m5.1m/s-45.8°C1.6%0hPa0V00:00:0000:00:0000:00:00
DL9RDZ-12026-09-04 23:35:2864.01047-22.3409795°66km/h12480m4.6m/s-46.0°C1.6%0hPa0V00:00:0000:00:0000:00:00
DL9RDZ-12026-09-04 23:35:1764.01031-22.3445789°58km/h12417m6.7m/s-46.1°C1.7%0hPa0V00:00:0000:00:0000:00:00
DL9RDZ-12026-09-04 23:35:0664.01015-22.3481480°57km/h12351m4.8m/s-45.9°C1.7%0hPa0V00:00:0000:00:0000:00:00
DL9RDZ-12026-09-04 23:34:5564.01000-22.3516069°66km/h12293m5.3m/s-45.9°C1.7%0hPa0V00:00:0000:00:0000:00:00
DL9RDZ-12026-09-04 23:34:4564.00980-22.3548684°47km/h12238m5.9m/s-46.0°C1.7%0hPa0V00:00:0000:00:0000:00:00
DL9RDZ-12026-09-04 23:34:3464.00955-22.3582684°62km/h12180m4.2m/s-45.7°C1.7%0hPa0V00:00:0000:00:0000:00:00
DL9RDZ-12026-09-04 23:34:2464.00932-22.3618478°55km/h12126m5.6m/s-45.6°C1.7%0hPa0V00:00:0000:00:0000:00:00
DL9RDZ-12026-09-04 23:34:0964.00884-22.3663086°47km/h12057m3.0m/s-45.7°C1.7%0hPa0V00:00:0000:00:0000:00:00
DL9RDZ-12026-09-04 23:33:5864.00839-22.3695871°53km/h11993m5.2m/s-45.5°C1.7%0hPa0V00:00:0000:00:0000:00:00
DL9RDZ-12026-09-04 23:33:4764.00801-22.3727076°49km/h11935m3.5m/s-45.1°C1.6%0hPa0V00:00:0000:00:0000:00:00
DL9RDZ-12026-09-04 23:33:3764.00780-22.3754481°57km/h11880m5.9m/s-44.9°C1.5%0hPa0V00:00:0000:00:0000:00:00
DL9RDZ-12026-09-04 23:33:2764.00751-22.3780777°35km/h11812m5.7m/s-44.8°C1.5%0hPa0V00:00:0000:00:0000:00:00
DL9RDZ-12026-09-04 23:32:5664.00679-22.3850991°40km/h11636m7.1m/s-44.8°C1.5%0hPa0V00:00:0000:00:0000:00:00
DL9RDZ-12026-09-04 23:32:4564.00671-22.3873439°20km/h11572m4.8m/s-44.9°C1.6%0hPa0V00:00:0000:00:0000:00:00
DL9RDZ-12026-09-04 23:32:3164.00647-22.3906287°35km/h11496m4.7m/s-45.0°C1.6%0hPa0V00:00:0000:00:0000:00:00
DL9RDZ-12026-09-04 23:32:1964.00646-22.3940787°51km/h11433m3.0m/s-45.3°C1.7%0hPa0V00:00:0000:00:0000:00:00
DL9RDZ-12026-09-04 23:32:0464.00600-22.3981873°46km/h11353m4.6m/s-45.9°C1.8%0hPa0V00:00:0000:00:0000:00:00
DL9RDZ-12026-09-04 23:31:5364.00558-22.4011671°49km/h11296m4.0m/s-45.9°C1.8%0hPa0V00:00:0000:00:0000:00:00
DL9RDZ-12026-09-04 23:31:4164.00508-22.4047587°53km/h11231m3.7m/s-46.0°C1.9%0hPa0V00:00:0000:00:0000:00:00
DL9RDZ-12026-09-04 23:31:3164.00472-22.4075891°49km/h11181m5.1m/s-46.4°C2.0%0hPa0V00:00:0000:00:0000:00:00
DL9RDZ-12026-09-04 23:31:1864.00422-22.41183103°46km/h11109m7.1m/s-46.6°C2.1%0hPa0V00:00:0000:00:0000:00:00
DL9RDZ-12026-09-04 23:31:0664.00392-22.4148877°51km/h11044m1.9m/s-47.0°C2.4%0hPa0V00:00:0000:00:0000:00:00
DL9RDZ-12026-09-04 23:30:5564.00362-22.4173679°58km/h10980m5.7m/s-47.4°C2.5%0hPa0V00:00:0000:00:0000:00:00
DL9RDZ-12026-09-04 23:30:4464.00332-22.4207174°55km/h10920m4.8m/s-47.5°C2.7%0hPa0V00:00:0000:00:0000:00:00
DL9RDZ-12026-09-04 23:30:3464.00297-22.4237171°53km/h10873m6.0m/s-47.3°C2.8%0hPa0V00:00:0000:00:0000:00:00
DL9RDZ-12026-09-04 23:30:2464.00258-22.4263980°40km/h10823m6.3m/s-47.5°C3.4%0hPa0V00:00:0000:00:0000:00:00
DL9RDZ-12026-09-04 23:30:1564.00209-22.4293660°73km/h10766m4.1m/s-48.3°C4.7%0hPa0V00:00:0000:00:0000:00:00
DL9RDZ-12026-09-04 23:30:0564.00153-22.43172125°37km/h10697m8.8m/s-49.0°C6.0%0hPa0V00:00:0000:00:0000:00:00
DL9RDZ-12026-09-04 23:29:5464.00136-22.43433118°46km/h10625m4.3m/s-50.3°C8.2%0hPa0V00:00:0000:00:0000:00:00
DL9RDZ-12026-09-04 23:29:4364.00115-22.4366868°31km/h10554m5.8m/s-50.3°C9.4%0hPa0V00:00:0000:00:0000:00:00
DL9RDZ-12026-09-04 23:29:3264.00085-22.4387662°37km/h10488m5.5m/s-51.0°C11.1%0hPa0V00:00:0000:00:0000:00:00
DL9RDZ-12026-09-04 23:29:2164.00069-22.4408270°47km/h10419m6.1m/s-51.0°C12.0%0hPa0V00:00:0000:00:0000:00:00
DL9RDZ-12026-09-04 23:29:1064.00049-22.4428389°24km/h10348m4.3m/s-51.5°C13.8%0hPa0V00:00:0000:00:0000:00:00
DL9RDZ-12026-09-04 23:28:5964.00030-22.4449672°44km/h10290m4.0m/s-51.6°C16.0%0hPa0V00:00:0000:00:0000:00:00
DL9RDZ-12026-09-04 23:28:4864.00015-22.4470994°53km/h10223m6.3m/s-51.7°C18.7%0hPa0V00:00:0000:00:0000:00:00
DL9RDZ-12026-09-04 23:28:3664.00006-22.4500863°38km/h10144m7.7m/s-52.2°C22.4%0hPa0V00:00:0000:00:0000:00:00
DL9RDZ-12026-09-04 23:28:2663.99972-22.4525098°46km/h10085m2.6m/s-52.6°C26.6%0hPa0V00:00:0000:00:0000:00:00
DL9RDZ-12026-09-04 23:28:1663.99923-22.4545357°38km/h10020m8.2m/s-53.0°C28.2%0hPa0V00:00:0000:00:0000:00:00
DL9RDZ-12026-09-04 23:28:0563.99886-22.4566274°51km/h9951m6.5m/s-52.8°C31.9%0hPa0V00:00:0000:00:0000:00:00
DL9RDZ-12026-09-04 23:27:5563.99874-22.45849115°29km/h9893m5.7m/s-53.0°C33.6%0hPa0V00:00:0000:00:0000:00:00
DL9RDZ-12026-09-04 23:27:4363.99835-22.4615647°22km/h9803m10.7m/s-53.1°C30.9%0hPa0V00:00:0000:00:0000:00:00
DL9RDZ-12026-09-04 23:27:3363.99811-22.46344110°40km/h9736m5.6m/s-52.8°C30.8%0hPa0V00:00:0000:00:0000:00:00
DL9RDZ-12026-09-04 23:27:2363.99777-22.4654470°53km/h9678m4.2m/s-52.3°C32.5%0hPa0V00:00:0000:00:0000:00:00
DL9RDZ-12026-09-04 23:27:1263.99732-22.4675251°44km/h9622m7.3m/s-52.0°C31.8%0hPa0V00:00:0000:00:0000:00:00
DL9RDZ-12026-09-04 23:27:0163.99689-22.4689437°20km/h9549m7.0m/s-51.8°C30.4%0hPa0V00:00:0000:00:0000:00:00
DL9RDZ-12026-09-04 23:26:5063.99644-22.47069104°26km/h9473m0.7m/s-51.8°C32.7%0hPa0V00:00:0000:00:0000:00:00
DL9RDZ-12026-09-04 23:26:3963.99608-22.4722864°29km/h9396m8.4m/s-51.6°C35.1%0hPa0V00:00:0000:00:0000:00:00
DL9RDZ-12026-09-04 23:26:2963.99557-22.4736919°40km/h9336m6.3m/s-51.5°C36.5%0hPa0V00:00:0000:00:0000:00:00
DL9RDZ-12026-09-04 23:26:1763.99507-22.4749759°5km/h9275m1.0m/s-51.3°C36.8%0hPa0V00:00:0000:00:0000:00:00
DL9RDZ-12026-09-04 23:26:0563.99453-22.4763613°22km/h9205m4.1m/s-50.8°C34.4%0hPa0V00:00:0000:00:0000:00:00
DL9RDZ-12026-09-04 23:25:5463.99416-22.4777782°15km/h9125m5.0m/s-50.5°C36.2%0hPa0V00:00:0000:00:0000:00:00
DL9RDZ-12026-09-04 23:25:4463.99385-22.4796755°31km/h9057m11.0m/s-50.1°C31.9%0hPa0V00:00:0000:00:0000:00:00
DL9RDZ-12026-09-04 23:25:3363.99335-22.48120122°15km/h8983m6.2m/s-49.6°C29.7%0hPa0V00:00:0000:00:0000:00:00
DL9RDZ-12026-09-04 23:25:2263.99292-22.4830351°40km/h8918m6.6m/s-49.2°C30.0%0hPa0V00:00:0000:00:0000:00:00
DL9RDZ-12026-09-04 23:25:1163.99243-22.48483355°13km/h8833m8.2m/s-48.5°C27.6%0hPa0V00:00:0000:00:0000:00:00
DL9RDZ-12026-09-04 23:25:0163.99204-22.4861835°33km/h8761m6.3m/s-48.1°C29.0%0hPa0V00:00:0000:00:0000:00:00
DL9RDZ-12026-09-04 23:24:5163.99153-22.48727354°24km/h8690m6.4m/s-47.7°C26.9%0hPa0V00:00:0000:00:0000:00:00
DL9RDZ-12026-09-04 23:24:3763.99085-22.4894463°31km/h8596m7.5m/s-47.0°C27.0%0hPa0V00:00:0000:00:0000:00:00
DL9RDZ-12026-09-04 23:24:2563.99035-22.49119105°16km/h8525m8.9m/s-46.5°C27.8%0hPa0V00:00:0000:00:0000:00:00
DL9RDZ-12026-09-04 23:24:1563.98993-22.49243341°13km/h8471m7.5m/s-46.1°C26.8%0hPa0V00:00:0000:00:0000:00:00
DL9RDZ-12026-09-04 23:24:0563.98939-22.4937655°38km/h8417m9.0m/s-45.6°C25.2%0hPa0V00:00:0000:00:0000:00:00
DL9RDZ-12026-09-04 23:23:5463.98892-22.49481355°22km/h8341m1.7m/s-45.0°C26.6%0hPa0V00:00:0000:00:0000:00:00
DL9RDZ-12026-09-04 23:23:4363.98869-22.4959030°24km/h8265m8.2m/s-44.5°C24.3%0hPa0V00:00:0000:00:0000:00:00
DL9RDZ-12026-09-04 23:23:3263.98833-22.4974975°31km/h8206m10.1m/s-44.1°C22.5%0hPa0V00:00:0000:00:0000:00:00
DL9RDZ-12026-09-04 23:23:1163.98733-22.4997742°42km/h8067m8.6m/s-43.0°C21.8%0hPa0V00:00:0000:00:0000:00:00
DL9RDZ-12026-09-04 23:23:0063.98699-22.5012658°40km/h7997m7.5m/s-42.7°C24.4%0hPa0V00:00:0000:00:0000:00:00
DL9RDZ-12026-09-04 23:22:4963.98675-22.50294112°29km/h7928m4.6m/s-42.4°C31.5%0hPa0V00:00:0000:00:0000:00:00
DL9RDZ-12026-09-04 23:22:3863.98640-22.5039480°38km/h7855m11.1m/s-41.9°C30.3%0hPa0V00:00:0000:00:0000:00:00
DL9RDZ-12026-09-04 23:22:2763.98593-22.50499353°35km/h7782m7.5m/s-41.4°C33.9%0hPa0V00:00:0000:00:0000:00:00
DL9RDZ-12026-09-04 23:22:1663.98567-22.5055091°24km/h7709m2.3m/s-41.2°C38.0%0hPa0V00:00:0000:00:0000:00:00
DL9RDZ-12026-09-04 23:22:0663.98527-22.5062795°26km/h7633m2.0m/s-40.9°C46.2%0hPa0V00:00:0000:00:0000:00:00
DL9RDZ-12026-09-04 23:21:5463.98480-22.50714294°26km/h7572m5.4m/s-40.6°C43.8%0hPa0V00:00:0000:00:0000:00:00
DL9RDZ-12026-09-04 23:21:4363.98430-22.5079887°31km/h7499m8.3m/s-40.3°C45.0%0hPa0V00:00:0000:00:0000:00:00
DL9RDZ-12026-09-04 23:21:3263.98373-22.5085138°22km/h7435m7.7m/s-39.9°C52.2%0hPa0V00:00:0000:00:0000:00:00
DL9RDZ-12026-09-04 23:21:2163.98317-22.50938355°40km/h7368m4.5m/s-39.4°C58.5%0hPa0V00:00:0000:00:0000:00:00
DL9RDZ-12026-09-04 23:21:1163.98250-22.5102026km/h7301m7.1m/s-39.0°C63.3%0hPa0V00:00:0000:00:0000:00:00
DL9RDZ-12026-09-04 23:21:0063.98199-22.5111247°29km/h7230m2.9m/s-38.5°C60.7%0hPa0V00:00:0000:00:0000:00:00
DL9RDZ-12026-09-04 23:20:5063.98153-22.5113465°42km/h7162m5.0m/s-38.0°C60.1%0hPa0V00:00:0000:00:0000:00:00
DL9RDZ-12026-09-04 23:20:4063.98088-22.51227103°29km/h7087m8.9m/s-37.5°C60.1%0hPa0V00:00:0000:00:0000:00:00
DL9RDZ-12026-09-04 23:20:2963.98038-22.51311333°22km/h7021m5.7m/s-36.9°C53.6%0hPa0V00:00:0000:00:0000:00:00
DL9RDZ-12026-09-04 23:20:1763.97996-22.51400101°24km/h6963m-1.0m/s-36.3°C50.3%0hPa0V00:00:0000:00:0000:00:00
DL9RDZ-12026-09-04 23:20:0463.97938-22.5147420km/h6882m7.4m/s-35.6°C47.2%0hPa0V00:00:0000:00:0000:00:00
DL9RDZ-12026-09-04 23:19:5363.97906-22.5155318km/h6817m7.6m/s-35.2°C54.5%0hPa0V00:00:0000:00:0000:00:00
DL9RDZ-12026-09-04 23:19:4163.97861-22.5160359°5km/h6743m9.1m/s-34.6°C51.7%0hPa0V00:00:0000:00:0000:00:00
DL9RDZ-12026-09-04 23:19:3063.97816-22.5165992°46km/h6675m6.0m/s-34.0°C49.7%0hPa0V00:00:0000:00:0000:00:00
DL9RDZ-12026-09-04 23:19:2063.97799-22.5171053°24km/h6612m7.6m/s-33.5°C48.2%0hPa0V00:00:0000:00:0000:00:00
DL9RDZ-12026-09-04 23:19:0963.97786-22.5178382°22km/h6546m8.2m/s-33.0°C45.1%0hPa0V00:00:0000:00:0000:00:00
DL9RDZ-12026-09-04 23:18:5963.97766-22.5185824°15km/h6493m5.9m/s-32.5°C46.9%0hPa0V00:00:0000:00:0000:00:00
DL9RDZ-12026-09-04 23:18:4863.97729-22.51996354°15km/h6427m7.0m/s-32.0°C46.9%0hPa0V00:00:0000:00:0000:00:00
DL9RDZ-12026-09-04 23:18:3763.97718-22.5210066°29km/h6350m6.8m/s-31.4°C44.6%0hPa0V00:00:0000:00:0000:00:00
DL9RDZ-12026-09-04 23:18:2663.97692-22.5226531km/h6288m3.3m/s-30.9°C40.9%0hPa0V00:00:0000:00:0000:00:00
DL9RDZ-12026-09-04 23:18:1563.97653-22.5239582°42km/h6218m6.1m/s-30.3°C40.9%0hPa0V00:00:0000:00:0000:00:00
DL9RDZ-12026-09-04 23:18:0563.97618-22.52523353°29km/h6148m8.7m/s-29.6°C39.4%0hPa0V00:00:0000:00:0000:00:00
DL9RDZ-12026-09-04 23:17:5463.97589-22.5266981°38km/h6081m6.1m/s-29.1°C38.6%0hPa0V00:00:0000:00:0000:00:00
DL9RDZ-12026-09-04 23:17:4363.97555-22.5284557°29km/h6014m5.4m/s-28.4°C39.8%0hPa0V00:00:0000:00:0000:00:00
DL9RDZ-12026-09-04 23:17:3263.97520-22.5294259°38km/h5955m8.5m/s-28.0°C40.6%0hPa0V00:00:0000:00:0000:00:00
DL9RDZ-12026-09-04 23:17:2263.97499-22.5307467°40km/h5892m4.1m/s-27.4°C40.5%0hPa0V00:00:0000:00:0000:00:00
DL9RDZ-12026-09-04 23:17:1163.97464-22.5318450°51km/h5829m5.7m/s-26.9°C37.3%0hPa0V00:00:0000:00:0000:00:00
DL9RDZ-12026-09-04 23:17:0263.97460-22.53322148°24km/h5769m3.2m/s-26.3°C34.5%0hPa0V00:00:0000:00:0000:00:00
DL9RDZ-12026-09-04 23:16:5163.97454-22.5344264°40km/h5712m6.6m/s-25.7°C32.6%0hPa0V00:00:0000:00:0000:00:00
DL9RDZ-12026-09-04 23:16:4063.97428-22.53536161°27km/h5642m7.0m/s-25.1°C31.1%0hPa0V00:00:0000:00:0000:00:00
DL9RDZ-12026-09-04 23:16:3063.97429-22.53627124°27km/h5588m3.5m/s-24.6°C29.0%0hPa0V00:00:0000:00:0000:00:00
DL9RDZ-12026-09-04 23:16:0963.97401-22.53858112°35km/h5441m6.4m/s-23.7°C25.2%0hPa0V00:00:0000:00:0000:00:00
DL9RDZ-12026-09-04 23:15:5863.97404-22.53991137°31km/h5373m5.8m/s-23.2°C25.7%0hPa0V00:00:0000:00:0000:00:00
DL9RDZ-12026-09-04 23:15:4763.97380-22.5415952°49km/h5309m3.9m/s-22.7°C30.7%0hPa0V00:00:0000:00:0000:00:00
DL9RDZ-12026-09-04 23:15:3763.97369-22.5429287°47km/h5243m4.4m/s-22.3°C38.2%0hPa0V00:00:0000:00:0000:00:00
DL9RDZ-12026-09-04 23:15:2663.97335-22.54396161°13km/h5175m4.8m/s-21.6°C42.9%0hPa0V00:00:0000:00:0000:00:00
DL9RDZ-12026-09-04 23:15:0463.97290-22.54641357°20km/h5028m6.5m/s-20.6°C49.0%0hPa0V00:00:0000:00:0000:00:00
DL9RDZ-12026-09-04 23:14:5463.97272-22.5474883°46km/h4958m2.5m/s-20.2°C55.7%0hPa0V00:00:0000:00:0000:00:00
DL9RDZ-12026-09-04 23:14:4463.97246-22.54864161°29km/h4898m3.3m/s-19.6°C55.3%0hPa0V00:00:0000:00:0000:00:00
DL9RDZ-12026-09-04 23:14:3263.97233-22.5499880°42km/h4840m2.3m/s-19.2°C58.2%0hPa0V00:00:0000:00:0000:00:00
DL9RDZ-12026-09-04 23:14:2263.97208-22.55093305°16km/h4777m3.9m/s-18.7°C57.7%0hPa0V00:00:0000:00:0000:00:00
DL9RDZ-12026-09-04 23:14:1163.97189-22.5520931°44km/h4704m5.9m/s-18.1°C58.6%0hPa0V00:00:0000:00:0000:00:00
DL9RDZ-12026-09-04 23:14:0063.97171-22.5527293°37km/h4632m5.1m/s-17.5°C57.2%0hPa0V00:00:0000:00:0000:00:00
DL9RDZ-12026-09-04 23:13:4963.97139-22.5534035°31km/h4565m8.5m/s-17.0°C55.0%0hPa0V00:00:0000:00:0000:00:00
DL9RDZ-12026-09-04 23:13:3863.97121-22.55407146°24km/h4499m1.8m/s-16.6°C54.9%0hPa0V00:00:0000:00:0000:00:00
DL9RDZ-12026-09-04 23:13:2763.97097-22.5547617°27km/h4437m5.9m/s-16.1°C53.2%0hPa0V00:00:0000:00:0000:00:00
DL9RDZ-12026-09-04 23:13:1763.97075-22.55524299°5km/h4380m6.1m/s-15.7°C54.8%0hPa0V00:00:0000:00:0000:00:00
DL9RDZ-12026-09-04 23:13:0663.97067-22.55530348°22km/h4311m5.3m/s-15.2°C52.3%0hPa0V00:00:0000:00:0000:00:00
DL9RDZ-12026-09-04 23:12:5663.97055-22.55587111°16km/h4253m7.2m/s-14.8°C54.7%0hPa0V00:00:0000:00:0000:00:00
DL9RDZ-12026-09-04 23:12:4563.97029-22.5563243°42km/h4194m4.8m/s-14.4°C55.9%0hPa0V00:00:0000:00:0000:00:00
DL9RDZ-12026-09-04 23:12:3463.97006-22.55707171°18km/h4133m5.4m/s-14.0°C55.2%0hPa0V00:00:0000:00:0000:00:00
DL9RDZ-12026-09-04 23:12:2463.96997-22.5579351°44km/h4075m7.3m/s-13.5°C52.0%0hPa0V00:00:0000:00:0000:00:00
DL9RDZ-12026-09-04 23:12:1363.96984-22.5586298°35km/h3998m6.6m/s-13.1°C52.1%0hPa0V00:00:0000:00:0000:00:00
DL9RDZ-12026-09-04 23:12:0363.96968-22.5596089°18km/h3938m6.2m/s-13.1°C57.2%0hPa0V00:00:0000:00:0000:00:00
DL9RDZ-12026-09-04 23:11:5363.96966-22.56005334°26km/h3869m3.5m/s-12.6°C56.4%0hPa0V00:00:0000:00:0000:00:00
DL9RDZ-12026-09-04 23:11:4363.96941-22.5605877°40km/h3806m5.9m/s-12.1°C54.9%0hPa0V00:00:0000:00:0000:00:00
DL9RDZ-12026-09-04 23:11:3163.96927-22.56136336°20km/h3741m5.3m/s-11.6°C48.7%0hPa0V00:00:0000:00:0000:00:00
DL9RDZ-12026-09-04 23:11:2063.96906-22.56234132°22km/h3676m7.5m/s-11.2°C46.2%0hPa0V00:00:0000:00:0000:00:00
DL9RDZ-12026-09-04 23:11:1063.96888-22.5628756°38km/h3615m3.8m/s-10.8°C44.5%0hPa0V00:00:0000:00:0000:00:00
DL9RDZ-12026-09-04 23:10:5963.96860-22.56338104°15km/h3541m5.6m/s-10.3°C40.6%0hPa0V00:00:0000:00:0000:00:00
DL9RDZ-12026-09-04 23:10:4863.96853-22.5638029°29km/h3476m4.7m/s-10.0°C31.0%0hPa0V00:00:0000:00:0000:00:00
DL9RDZ-12026-09-04 23:10:3763.96844-22.56460334°20km/h3406m4.3m/s-9.4°C29.8%0hPa0V00:00:0000:00:0000:00:00
DL9RDZ-12026-09-04 23:10:2763.96838-22.56536143°24km/h3342m9.2m/s-8.8°C28.1%0hPa0V00:00:0000:00:0000:00:00
DL9RDZ-12026-09-04 23:09:5663.96830-22.56663150°27km/h3146m5.6m/s-7.4°C23.4%0hPa0V00:00:0000:00:0000:00:00
DL9RDZ-12026-09-04 23:09:4563.96817-22.56745197°9km/h3080m4.1m/s-7.4°C18.8%0hPa0V00:00:0000:00:0000:00:00
DL9RDZ-12026-09-04 23:09:3463.96804-22.56802108°29km/h3018m5.8m/s-7.6°C57.6%0hPa0V00:00:0000:00:0000:00:00
DL9RDZ-12026-09-04 23:09:2363.96789-22.56822196°9km/h2957m4.7m/s-7.3°C68.1%0hPa0V00:00:0000:00:0000:00:00
DL9RDZ-12026-09-04 23:09:1363.96778-22.5687130°24km/h2902m5.1m/s-7.4°C80.0%0hPa0V00:00:0000:00:0000:00:00
DL9RDZ-12026-09-04 23:09:0363.96776-22.56863146°22km/h2843m7.9m/s-7.0°C76.3%0hPa0V00:00:0000:00:0000:00:00
DL9RDZ-12026-09-04 23:08:5363.96785-22.56899207°24km/h2777m5.6m/s-6.5°C69.3%0hPa0V00:00:0000:00:0000:00:00
DL9RDZ-12026-09-04 23:07:4163.96869-22.57462140°4km/h2342m4.6m/s-3.6°C54.7%0hPa0V00:00:0000:00:0000:00:00
DL9RDZ-12026-09-04 23:07:2163.96853-22.57661179°11km/h2219m5.0m/s-2.6°C52.8%0hPa0V00:00:0000:00:0000:00:00
DL9RDZ-12026-09-04 23:07:0663.96835-22.5777095°24km/h2132m8.0m/s-2.0°C53.1%0hPa0V00:00:0000:00:0000:00:00
DL9RDZ-12026-09-04 23:06:5663.96841-22.57825343°5km/h2064m6.1m/s-1.5°C52.4%0hPa0V00:00:0000:00:0000:00:00
DL9RDZ-12026-09-04 23:06:4663.96853-22.5790458°31km/h2005m2.8m/s-1.1°C50.9%0hPa0V00:00:0000:00:0000:00:00
DL9RDZ-12026-09-04 23:06:3563.96854-22.57997212°13km/h1946m10.7m/s-0.9°C52.7%0hPa0V00:00:0000:00:0000:00:00
DL9RDZ-12026-09-04 23:06:2263.96858-22.58107134°27km/h1860m6.1m/s-0.7°C52.9%0hPa0V00:00:0000:00:0000:00:00
DL9RDZ-12026-09-04 23:06:1063.96857-22.58221237°13km/h1792m5.2m/s-0.3°C51.8%0hPa0V00:00:0000:00:0000:00:00
DL9RDZ-12026-09-04 23:06:0063.96871-22.58311242°9km/h1734m8.1m/s-0.2°C59.2%0hPa0V00:00:0000:00:0000:00:00
DL9RDZ-12026-09-04 23:05:4963.96853-22.5837943°18km/h1665m7.4m/s-0.2°C68.6%0hPa0V00:00:0000:00:0000:00:00
DL9RDZ-12026-09-04 23:05:3963.96849-22.58457154°22km/h1603m6.8m/s0.3°C66.4%0hPa0V00:00:0000:00:0000:00:00
DL9RDZ-12026-09-04 23:05:2963.96850-22.5850957°16km/h1547m6.7m/s0.7°C58.9%0hPa0V00:00:0000:00:0000:00:00
DL9RDZ-12026-09-04 23:05:1963.96845-22.58611167°13km/h1484m4.9m/s1.0°C58.1%0hPa0V00:00:0000:00:0000:00:00
DL9RDZ-12026-09-04 23:05:0863.96841-22.58689108°27km/h1424m6.4m/s1.3°C64.5%0hPa0V00:00:0000:00:0000:00:00
DL9RDZ-12026-09-04 23:04:5863.96851-22.5875337°16km/h1364m6.7m/s1.8°C0%0hPa0V00:00:0000:00:0000:00:00
DL9RDZ-12026-09-04 23:04:4863.96845-22.58838117°20km/h1300m9.9m/s2.2°C0%0hPa0V00:00:0000:00:0000:00:00
DL9RDZ-12026-09-04 23:04:3763.96840-22.5891394°27km/h1234m6.4m/s2.5°C0%0hPa0V00:00:0000:00:0000:00:00
DL9RDZ-12026-09-04 23:04:2563.96827-22.59022141°22km/h1171m5.9m/s2.6°C0%0hPa0V00:00:0000:00:0000:00:00
DL9RDZ-12026-09-04 23:04:1463.96815-22.5911750°11km/h1111m7.8m/s0°C0%0hPa0V00:00:0000:00:0000:00:00
DL9RDZ-12026-09-04 23:04:0463.96812-22.5920256°37km/h1055m2.9m/s0°C0%0hPa0V00:00:0000:00:0000:00:00
DL9RDZ-12026-09-04 23:03:5463.96814-22.5931064°35km/h996m8.2m/s0°C0%0hPa0V00:00:0000:00:0000:00:00


GPX KML Map

© wettersonde.net (DO2JMG) - 2026  -  -